Tiempo atmosférico en la estación meteorológica de Málaga, Puerto, Málaga (20 m.)



Fecha
DESCASC
Temp. máxima en grados centígrados (hora)
DESCASC
Temp. mínima en grados centígrados (hora)
DESCASC
Temp. media en grados centígrados
DESCASC
Racha de viento máxima en m/sg (hora)
DESCASC
Velocidad máxima media en intervalos de 10 minutos(hora)
DESCASC
Precipitaciones diarias en mm
DESCASC
Precipitaciones de 00:00 a 06:00 en mm
DESCASC
Precipitaciones de 06:00 a 12:00 en mm
DESCASC
Precipitaciones de 12:00 a 18:00 en mm
DESCASC
Precipitaciones de 18:00 a 24:00 en mm
DESCASC
15-08-2019 28.5 (10:40) 21.9 (06:20) 25.2 4.17 (07:40) 2.5 (13:00) 0 0 0 0 0
14-08-2019 28.5 (12:50) 23.1 (00:00) 25.8 6.67 (00:10) 3.61 (00:10) 0 0 0 0 0
13-08-2019 30.2 (12:40) 22.6 (00:00) 26.4 6.11 (02:20) 3.61 (01:30) 0 0 0 0 0
12-08-2019 34.4 (15:00) 22.2 (00:00) 28.3 10.83 (09:30) 5.83 (09:20) 0 0 0 0 0
11-08-2019 37.4 (16:50) 20.5 (00:00) 29 13.06 (15:30) 6.39 (15:10) 0 0 0 0 0
10-08-2019 35 (12:50) 23.2 (00:00) 29.1 10.56 (09:10) 5.28 (09:10) 0 0 0 0 0
09-08-2019 37.2 (12:40) 22.4 (00:00) 29.8 11.11 (14:20) 7.78 (14:20) 0 0 0 0 0
08-08-2019 32.3 (00:20) 23.2 (00:00) 27.8 8.33 (04:50) 4.72 (04:30) 0 0 0 0 0
07-08-2019 39.9 (15:10) 23.3 (00:00) 31.6 10 (15:20) 4.72 (17:00) 0 0 0 0 0
06-08-2019 29 (16:20) 21.3 (00:00) 25.1 7.22 (20:30) 4.44 (21:10) 0 0 0 0 0
05-08-2019 28.1 (11:00) 22.3 (00:00) 25.2 7.22 (13:30) 5.28 (13:20) 0 0 0 0 0
04-08-2019 27.3 (09:30) 22.5 (00:00) 24.9 6.11 (07:40) 3.33 (07:30) 0 0 0 0 0
03-08-2019 27.5 (14:30) 22.3 (00:00) 24.9 5.28 (00:10) 3.06 (16:20) 0 0 0 0 0
02-08-2019 27.5 (13:30) 22.2 (00:00) 24.9 7.5 (09:50) 5.56 (09:50) 0 0 0 0 0
01-08-2019 30.6 (11:10) 23.8 (00:00) 27.2 5.28 (12:20) 3.33 (12:40) 0 0 0 0 0
31-07-2019 30.1 (15:20) 22.6 (00:00) 26.4 7.5 (00:10) 3.06 (00:20) 0 0 0 0 0
30-07-2019 29.4 (02:20) 20.5 (00:00) 24.9 7.22 (02:20) 4.17 (02:20) 0 0 0 0 0
29-07-2019 28 (10:20) 20.3 (00:00) 24.1 7.5 (19:00) 4.72 (18:50) 0 0 0 0 0
28-07-2019 28.8 (11:10) 21.7 (00:00) 25.3 8.61 (00:40) 4.72 (01:50) 0 0 0 0 0
27-07-2019 32.2 (16:00) 24.1 (00:00) 28.2 13.33 (13:40) 6.39 (17:10) 0 0 0 0 0
26-07-2019 36 (15:20) 21.5 (00:00) 28.8 11.11 (13:20) 5.83 (12:40) 0 0 0 0 0
25-07-2019 29 (09:30) 24.1 (00:00) 26.6 4.72 (03:00) 2.78 (04:10) 0 0 0 0 0
24-07-2019 30.1 (11:40) 23.3 (00:00) 26.7 6.11 (18:10) 4.44 (18:00) 0 0 0 0 0
23-07-2019 29.6 (10:20) 22.9 (00:00) 26.3 8.89 (12:40) 6.67 (12:40) 0 0 0 0 0
22-07-2019 28.1 (16:50) 23.3 (00:00) 25.7 6.67 (15:40) 4.72 (15:30) 0 0 0 0 0
21-07-2019 30.6 (11:20) 22.9 (00:00) 26.8 6.67 (08:10) 3.89 (08:20) 0 0 0 0 0
20-07-2019 28.9 (10:50) 23.5 (00:00) 26.2 6.94 (13:20) 3.61 (15:20) 0 0 0 0 0
19-07-2019 29.1 (10:40) 21.6 (00:00) 25.4 6.67 (21:20) 5 (16:20) 0 0 0 0 0

Gráficas

Temp. máximas Temp. mínimas Temp. medias Precipitaciones Rachas de viento máximas Velocidades máximas media en intervalos de 10 minutos

Datos horarios

Fecha y hora oficial Temperatura (ºC) Velocidad del viento (km/h) Dirección del viento Racha (km/h) Dirección de racha Precipitación (mm) Presión (hPa) Tendencia (hPa) Humedad (%)
2019-08-17 23:00:00 23.7 0 Calma 4 Sur 0 1008.8 0.9 83
2019-08-17 22:00:00 23.7 2 Sudeste 5 Sur 0 1008.2 -0.4 82
2019-08-17 21:00:00 24.3 2 Sur 8 Sur 0 1008.1 -1.2 78
2019-08-17 20:00:00 24.4 4 Sudeste 10 Este 0 1007.9 -1.4 76
2019-08-17 19:00:00 25.1 5 Sudeste 12 Sudeste 0 1008.6 -1.3 74
2019-08-17 18:00:00 25.9 6 Sudeste 13 Sur 0 1009.3 -1 69
2019-08-17 17:00:00 25.2 7 Sudeste 13 Sur 0 1009.3 -1.5 70
2019-08-17 16:00:00 25.7 9 Sur 15 Sur 0 1009.9 -1.1 70
2019-08-17 15:00:00 25.4 10 Sur 15 Sur 0 1010.3 -1 70
2019-08-17 14:00:00 25.3 11 Sur 16 Sur 0 1010.8 -0.1 72
2019-08-17 13:00:00 25.3 8 Sur 16 Sur 0 1011 0.8 73
2019-08-17 12:00:00 25 9 Sur 16 Sudoeste 0 1011.3 0.9 75
2019-08-17 11:00:00 24.4 12 Sur 17 Sur 0 1010.9 -0.1 72
2019-08-17 10:00:00 28.5 0 Calma 5 Este 0 1010.2 -0.6 38
2019-08-17 09:00:00 25.7 2 Noroeste 8 Noroeste 0 1010.4 -0.7 42
2019-08-17 08:00:00 23.3 5 Noroeste 13 Noroeste 0 1011 -0.4 44
2019-08-17 07:00:00 23.2 6 Noroeste 10 Norte 0 1010.8 -0.6 47
2019-08-17 06:00:00 22.3 3 Norte 5 Norte 0 1011.1 -0.4 56
2019-08-17 05:00:00 22.8 2 Sudeste 10 Sudeste 0 1011.4 -0.7 67
2019-08-17 04:00:00 23.7 3 Sudeste 9 Noroeste 0 1011.4 -0.7 55
2019-08-17 03:00:00 23.1 5 Norte 10 Noroeste 0 1011.5 -0.4 60
2019-08-17 02:00:00 23.3 0 Calma 5 Sudeste 0 1012.1 0.2 83
2019-08-17 01:00:00 23.5 3 Sudeste 5 Sudeste 0 1012.1 0.7 82
2019-08-17 00:00:00 24.3 3 Sur 5 Sur 0 1011.9 0.9 79
2019-08-16 23:00:00 24.6 0 Calma 5 Sur 0 1011.9 1.2 75
2019-08-16 22:00:00 24.9 3 Este 7 Este 0 1011.4 0.5 73
2019-08-16 21:00:00 25 4 Sudeste 8 Sudeste 0 1011 -0.3 67
2019-08-16 20:00:00 26.2 4 Sudeste 8 Sudeste 0 1010.7 -1.1 65
2019-08-16 19:00:00 26.9 3 Sudeste 11 Este 0 1010.9 -1.4 65
2019-08-16 18:00:00 25.9 6 Sudeste 13 Sudeste 0 1011.3 -1.3 67
2019-08-16 17:00:00 25.5 8 Sudeste 13 Este 0 1011.8 -1 70
2019-08-16 16:00:00 26.1 7 Sudeste 13 Este 0 1012.3 -0.8 68
2019-08-16 15:00:00 26.7 7 Sur 13 Sur 0 1012.6 -0.3 61
2019-08-16 14:00:00 26.3 8 Sudeste 12 Sudeste 0 1012.8 0.4 57
2019-08-16 13:00:00 27.3 6 Sudeste 10 Sudeste 0 1013.1 0.8 47
2019-08-16 12:00:00 26.5 5 Sudeste 9 Sudeste 0 1012.9 0.5 46
2019-08-16 11:00:00 26.9 5 Sudeste 7 Este 0 1012.4 -0.6 48
2019-08-16 10:00:00 27 0 Calma 5 Sudeste 0 1012.3 0.2 56
2019-08-16 09:00:00 23.8 2 Sudeste 10 Sudoeste 0 1012.4 0.6 70
2019-08-16 08:00:00 22.9 8 Sudoeste 14 Sudoeste 0 1013 1 71
2019-08-16 07:00:00 24 5 Noroeste 10 Noroeste 0 1012.1 -0.3 42
2019-08-16 06:00:00 21.3 0 Calma 4 Este 0 1011.8 -0.7 86
2019-08-16 05:00:00 23.2 0 Calma 6 Sudeste 0 1012 -0.8 82
2019-08-16 04:00:00 23.1 0 Calma 6 Este 0 1012.4 -0.5 73
2019-08-16 03:00:00 24.6 3 Este 8 Nordeste 0 1012.5 -0.4 53
2019-08-16 02:00:00 25.6 5 Noroeste 12 Norte 0 1012.8 0.2 47
2019-08-16 01:00:00 23 0 Calma 6 Norte 0 1012.9 0.8 77
2019-08-16 00:00:00 24 3 Sudoeste 5 Sudoeste 0 1012.9 1.1 75
2019-08-15 23:00:00 24.4 0 Calma 4 Sudoeste 0 1012.6 1.1 72
2019-08-15 22:00:00 24.4 0 Calma 4 Sur 0 1012.1 0.5 71
2019-08-15 21:00:00 24.5 4 Este 6 Sudeste 0 1011.8 0.1 71
2019-08-15 20:00:00 25.6 3 Sudeste 8 Sudeste 0 1011.5 -0.6 67
2019-08-15 19:00:00 25.3 5 Sudeste 9 Sudeste 0 1011.6 -0.8 70
2019-08-15 18:00:00 24.9 6 Sudeste 12 Este 0 1011.7 -1.1 70
2019-08-15 17:00:00 25.8 6 Sudeste 13 Sur 0 1012.1 -1 67
2019-08-15 16:00:00 24.5 7 Sudeste 13 Sudeste 0 1012.4 -0.8 71
2019-08-15 15:00:00 24.2 6 Sudeste 14 Sudeste 0 1012.8 -0.3 71
2019-08-15 14:00:00 24.3 6 Sudeste 13 Sur 0 1013.1 0.5 67
2019-08-15 13:00:00 25.5 9 Sur 12 Sur 0 1013.2 1 66
2019-08-15 12:00:00 25.8 6 Sur 10 Sur 0 1013.1 1 61
2019-08-15 11:00:00 25.6 7 Sudeste 13 Sur 0 1012.6 -0.1 59
2019-08-15 10:00:00 28 2 Este 6 Este 0 1012.2 -0.4 44
2019-08-15 09:00:00 26.5 0 Calma 8 Nordeste 0 1012.1 -0.4 44
2019-08-15 08:00:00 23.6 4 Noroeste 15 Noroeste 0 1012.7 0.2 51
2019-08-15 07:00:00 22.6 0 Calma 5 Norte 0 1012.6 0 65
2019-08-15 06:00:00 22.5 0 Calma 6 Este 0 1012.5 -0.6 72
2019-08-15 05:00:00 23.3 0 Calma 7 Norte 0 1012.5 -1.1 67
2019-08-15 04:00:00 23.2 3 Norte 7 Norte 0 1012.6 -1.2 72
2019-08-15 03:00:00 23.2 0 Calma 5 Sur 0 1013.1 -0.6 85
2019-08-15 02:00:00 23.3 3 Sur 4 Sur 0 1013.6 0.2 85
2019-08-15 01:00:00 23.5 0 Calma 5 Sudeste 0 1013.8 1.2 83
2019-08-15 00:00:00 23.6 3 Sudeste 6 Sudeste 0 1013.7 1.8 83
2019-08-14 23:00:00 24 3 Sudeste 6 Sudeste 0 1013.4 1.5 80
2019-08-14 22:00:00 24.1 2 Este 7 Este 0 1012.6 0.5 80
2019-08-14 21:00:00 24.4 4 Sudeste 9 Sudeste 0 1011.9 -0.6 78
2019-08-14 20:00:00 25 7 Este 11 Este 0 1011.9 -1 72
2019-08-14 19:00:00 25.5 6 Este 12 Este 0 1012.1 -1.2 69
2019-08-14 18:00:00 25.7 8 Sudeste 14 Este 0 1012.5 -1.5 67
2019-08-14 17:00:00 25.9 9 Sudeste 14 Sudeste 0 1012.9 -1.6 67
2019-08-14 16:00:00 24.9 9 Sudeste 14 Sudeste 0 1013.3 -1.6 70
2019-08-14 15:00:00 26.7 9 Sudeste 14 Sur 0 1014 -0.9 66
2019-08-14 14:00:00 26.3 9 Sudeste 14 Sudeste 0 1014.5 0.1 69
2019-08-14 13:00:00 27.4 8 Sudeste 13 Sur 0 1014.9 -0.1 64
2019-08-14 12:00:00 26.5 6 Sudeste 10 Sur 0 1014.9 0.2 68
2019-08-14 11:00:00 26.8 6 Sudeste 10 Este 0 1014.4 0.1 67
2019-08-14 10:00:00 24.8 5 Este 10 Este 0 1015 0.9 83
2019-08-14 09:00:00 24.1 3 Este 8 Este 0 1014.7 0.7 85
2019-08-14 08:00:00 23.7 5 Este 11 Este 0 1014.3 0.5 87
2019-08-14 07:00:00 23.5 4 Este 12 Este 0 1014.1 0.2 87
2019-08-14 06:00:00 23.3 5 Sudeste 11 Sudeste 0 1014 -0.1 87
2019-08-14 05:00:00 23.5 6 Sudeste 14 Este 0 1013.8 -0.6 85
2019-08-14 04:00:00 24.1 10 Este 16 Este 0 1013.9 -0.2 85
2019-08-14 03:00:00 24 6 Este 17 Este 0 1014.1 0.1 86
2019-08-14 02:00:00 23.9 8 Este 18 Este 0 1014.4 0.9 86
2019-08-14 01:00:00 24.2 10 Este 24 Este 0 1014.1 1.4 85
2019-08-14 00:00:00 24.6 12 Sudeste 21 Sudeste 0 1014 2 84
2019-08-13 23:00:00 24.4 10 Este 17 Este 0 1013.5 1.9 81
2019-08-13 22:00:00 24.3 10 Este 19 Este 0 1012.7 1.3 78
2019-08-13 21:00:00 25.4 9 Sudeste 11 Sudeste 0 1012 0.4 72
2019-08-13 20:00:00 26.9 4 Sudeste 12 Este 0 1011.6 -0.1 69
2019-08-13 19:00:00 26.7 9 Este 13 Este 0 1011.4 -0.6 67
2019-08-13 18:00:00 26.8 9 Este 13 Este 0 1011.6 -0.6 65
2019-08-13 17:00:00 26.7 9 Sudeste 13 Sudeste 0 1011.7 -0.5 66
2019-08-13 16:00:00 27.7 6 Sudeste 10 Sudeste 0 1012 -0.2 63
2019-08-13 15:00:00 27.9 8 Sudeste 13 Sudeste 0 1012.2 0.1 62
2019-08-13 14:00:00 29.4 7 Sur 12 Sur 0 1012.2 0.5 57
2019-08-13 13:00:00 29.6 6 Sur 10 Sudeste 0 1012.2 0.3 55
2019-08-13 12:00:00 29.5 7 Sur 10 Sur 0 1012.1 0.1 58
2019-08-13 11:00:00 29.5 4 Sur 10 Sur 0 1011.7 0 56
2019-08-13 10:00:00 28.6 4 Sudoeste 7 Sudoeste 0 1011.9 0.9 50
2019-08-13 09:00:00 25.6 4 Noroeste 10 Noroeste 0 1012 1.3 53
2019-08-13 08:00:00 24.7 6 Noroeste 13 Noroeste 0 1011.7 0.9 52
2019-08-13 07:00:00 24.4 3 Norte 12 Norte 0 1011 0.2 52
2019-08-13 06:00:00 24.6 5 Noroeste 11 Noroeste 0 1010.7 -0.2 49
2019-08-13 05:00:00 24.9 8 Noroeste 12 Noroeste 0 1010.8 -0.7 49
2019-08-13 04:00:00 23.8 4 Oeste 12 Oeste 0 1010.8 -0.5 68
2019-08-13 03:00:00 22.8 4 Sudeste 22 Sudeste 0 1010.9 0.1 66
2019-08-13 02:00:00 24.5 3 Este 21 Este 0 1011.5 1.1 52
2019-08-13 01:00:00 24.6 0 Calma 18 Este 0 1011.3 1.7 49
2019-08-13 00:00:00 26.3 4 Este 15 Este 0 1010.8 2.5 43
2019-08-12 23:00:00 23.1 0 Calma 5 Este 0 1010.4 2.7 56
2019-08-12 22:00:00 22.3 2 Sudeste 16 Este 0 1009.6 2.2 52
2019-08-12 21:00:00 23.7 8 Este 16 Este 0 1008.3 1 43
2019-08-12 20:00:00 24.4 11 Este 19 Este 0 1007.7 0.3 44
2019-08-12 19:00:00 23.6 14 Este 24 Este 0 1007.4 0.3 46
2019-08-12 18:00:00 24.4 18 Este 27 Este 0 1007.3 -0.5 39
2019-08-12 17:00:00 26.7 15 Sudeste 29 Este 0 1007.4 -1 32
2019-08-12 16:00:00 34.4 14 Sudoeste 28 Sudoeste 0 1007.1 -1.8 16
2019-08-12 15:00:00 33.4 15 Sudoeste 32 Oeste 0 1007.8 -0.9 18
2019-08-12 14:00:00 31.3 14 Oeste 34 Oeste 0 1008.4 0.1 20
2019-08-12 13:00:00 30.1 17 Sudoeste 38 Sudoeste 0 1008.9 0.5 22
2019-08-12 12:00:00 29.3 16 Oeste 34 Oeste 0 1008.7 1 23
2019-08-12 11:00:00 27.7 15 Oeste 34 Oeste 0 1008.3 0.5 24
2019-08-12 10:00:00 25.8 14 Oeste 39 Oeste 0 1008.4 0.5 25
2019-08-12 09:00:00 25.4 19 Oeste 39 Oeste 0 1007.7 -0.3 24
2019-08-12 08:00:00 24.8 19 Oeste 33 Oeste 0 1007.8 -0.1 24
2019-08-12 07:00:00 25 13 Oeste 30 Oeste 0 1007.9 -0.5 24
2019-08-12 06:00:00 25.5 15 Oeste 29 Sudoeste 0 1008 -0.5 24
2019-08-12 05:00:00 26.2 14 Oeste 27 Oeste 0 1007.9 -1.1 23
2019-08-12 04:00:00 26.7 12 Oeste 25 Oeste 0 1008.4 -0.6 23
2019-08-12 03:00:00 27.7 12 Oeste 32 Oeste 0 1008.5 -0.3 22
2019-08-12 02:00:00 28.3 16 Oeste 33 Oeste 0 1009 0.4 21
2019-08-12 01:00:00 29.8 13 Oeste 27 Oeste 0 1009 1.2 20
2019-08-12 00:00:00 30.8 14 Oeste 29 Noroeste 0 1008.8 1.9 19
2019-08-11 23:00:00 31.3 13 Oeste 33 Oeste 0 1008.6 2.2 19
2019-08-11 22:00:00 31.9 10 Noroeste 36 Noroeste 0 1007.8 1.4 18
2019-08-11 21:00:00 33.2 18 Noroeste 42 Noroeste 0 1006.9 0.4 16
2019-08-11 20:00:00 34.7 14 Noroeste 35 Noroeste 0 1006.4 -0.3 16
2019-08-11 19:00:00 35 18 Noroeste 37 Noroeste 0 1006.4 -0.7 16
2019-08-11 18:00:00 36.1 12 Noroeste 41 Noroeste 0 1006.5 -0.8 16
2019-08-11 17:00:00 36.4 15 Noroeste 38 Oeste 0 1006.7 -1.5 17
2019-08-11 16:00:00 35.5 21 Noroeste 47 Noroeste 0 1007.1 -1.5 18
2019-08-11 15:00:00 35.1 22 Oeste 43 Oeste 0 1007.3 -1.8 19
2019-08-11 14:00:00 34.7 19 Oeste 37 Noroeste 0 1008.2 -0.6 18
2019-08-11 13:00:00 34.7 12 Oeste 36 Oeste 0 1008.6 0.1 20
2019-08-11 12:00:00 32.8 14 Oeste 33 Oeste 0 1009.1 0.4 24
2019-08-11 11:00:00 30.7 15 Oeste 39 Oeste 0 1008.8 -0.5 27
2019-08-11 10:00:00 28.9 18 Oeste 36 Oeste 0 1008.5 -0.6 31
2019-08-11 09:00:00 26.8 14 Oeste 32 Sudoeste 0 1008.7 -0.4 33
2019-08-11 08:00:00 26 15 Sudoeste 29 Sudoeste 0 1009.3 0 33
2019-08-11 07:00:00 26.6 13 Oeste 22 Oeste 0 1009.1 0.1 35
2019-08-11 06:00:00 22.3 4 Este 9 Sudeste 0 1009.1 0.4 80
2019-08-11 05:00:00 22.2 6 Este 10 Este 0 1009.3 0.3 81
2019-08-11 04:00:00 22.4 5 Este 19 Este 0 1009 0.1 79
2019-08-11 03:00:00 22.7 5 Este 19 Este 0 1008.7 -0.4 76
2019-08-11 02:00:00 23.4 16 Este 22 Este 0 1009 -0.2 74
2019-08-11 01:00:00 23.1 2 Este 6 Sudeste 0 1008.9 0.6 76
2019-08-11 00:00:00 23.5 0 Calma 15 Este 0 1009.1 1.7 74
2019-08-10 23:00:00 23.7 13 Este 18 Este 0 1009.2 1.9 71
2019-08-10 22:00:00 24.5 9 Este 17 Este 0 1008.3 0.8 66
2019-08-10 21:00:00 25.4 10 Este 15 Sudeste 0 1007.4 -0.5 61
2019-08-10 20:00:00 26.2 11 Este 18 Este 0 1007.3 -1.6 55
2019-08-10 19:00:00 28 12 Este 18 Este 0 1007.5 -2.2 52
2019-08-10 18:00:00 27.7 8 Sudeste 14 Este 0 1007.9 -2.1 47
2019-08-10 17:00:00 29.2 12 Este 21 Este 0 1008.9 -1.6 46
2019-08-10 16:00:00 26.2 12 Este 25 Este 0 1009.7 -0.4 53
2019-08-10 15:00:00 28.6 15 Este 25 Este 0 1010 -0.4 50
2019-08-10 14:00:00 26.3 11 Este 30 Sudoeste 0 1010.5 0.2 54
2019-08-10 13:00:00 34.4 19 Sudoeste 34 Sudoeste 0 1010.1 0.1 38
2019-08-10 12:00:00 32.9 17 Oeste 33 Oeste 0 1010.4 0.5 42
2019-08-10 11:00:00 30.9 16 Oeste 37 Oeste 0 1010.3 0.7 48
2019-08-10 10:00:00 29.4 14 Oeste 38 Oeste 0 1010 0.4 51
2019-08-10 09:00:00 27.8 15 Oeste 34 Sudoeste 0 1009.9 -0.1 55
2019-08-10 08:00:00 27.2 12 Oeste 33 Oeste 0 1009.6 -0.3 55
2019-08-10 07:00:00 28.2 13 Oeste 26 Oeste 0 1009.6 -0.8 51
2019-08-10 06:00:00 28.4 12 Oeste 29 Oeste 0 1010 -0.1 50
2019-08-10 05:00:00 28.9 13 Oeste 29 Oeste 0 1009.9 0.1 47
2019-08-10 04:00:00 29.3 10 Oeste 27 Oeste 0 1010.4 0.5 45
2019-08-10 03:00:00 30.4 13 Oeste 30 Oeste 0 1010.1 0.5 36
2019-08-10 02:00:00 31 12 Oeste 23 Sudoeste 0 1009.8 0.7 28
2019-08-10 01:00:00 31.4 11 Oeste 23 Sudoeste 0 1009.9 1.7 26
2019-08-10 00:00:00 32.5 11 Oeste 20 Oeste 0 1009.6 2 26
2019-08-09 23:00:00 33.2 6 Oeste 24 Noroeste 0 1009.1 2 26
2019-08-09 22:00:00 34.1 11 Noroeste 23 Noroeste 0 1008.2 1.1 27
2019-08-09 21:00:00 35 11 Noroeste 22 Noroeste 0 1007.6 0 29
2019-08-09 20:00:00 25.5 5 Sudeste 13 Este 0 1007.1 -1.2 58
2019-08-09 19:00:00 25.6 7 Sudeste 17 Este 0 1007.1 -1.7 54
2019-08-09 18:00:00 27.3 14 Este 31 Este 0 1007.6 -1.5 48
2019-08-09 17:00:00 27.6 17 Este 24 Este 0 1008.3 -1 48
2019-08-09 16:00:00 29.3 10 Sudeste 35 Sudoeste 0 1008.8 -0.5 42
2019-08-09 15:00:00 27.4 20 Sudoeste 40 Sur 0 1009.1 0.1 45
2019-08-09 14:00:00 29.9 22 Sudoeste 38 Sudoeste 0 1009.3 0.5 31
2019-08-09 13:00:00 30.6 20 Sudoeste 34 Sudoeste 0 1009.3 0.5 29
2019-08-09 12:00:00 35.8 12 Sudoeste 27 Sudoeste 0 1009 0.1 21
2019-08-09 11:00:00 32.2 14 Sudoeste 31 Sudoeste 0 1008.8 -0.6 28
2019-08-09 10:00:00 30 14 Sudoeste 31 Oeste 0 1008.8 -0.7 31
2019-08-09 09:00:00 27.8 14 Oeste 26 Oeste 0 1008.9 -0.4 32
2019-08-09 08:00:00 26.8 10 Oeste 24 Oeste 0 1009.4 0.1 31
2019-08-09 07:00:00 26.6 11 Oeste 25 Oeste 0 1009.5 0.2 33
2019-08-09 06:00:00 26.3 13 Oeste 26 Oeste 0 1009.3 -0.4 36
2019-08-09 05:00:00 26.5 10 Oeste 20 Noroeste 0 1009.3 -0.3 38
2019-08-09 04:00:00 23.1 5 Noroeste 8 Noroeste 0 1009.3 -0.1 74
2019-08-09 03:00:00 22.7 0 Calma 5 Noroeste 0 1009.7 0.7 85
2019-08-09 02:00:00 22.8 0 Calma 6 Sur 0 1009.6 0.8 83
2019-08-09 01:00:00 23.1 3 Este 6 Sur 0 1009.4 1.7 80
2019-08-09 00:00:00 23.4 0 Calma 9 Sudeste 0 1009 1.9 80
2019-08-08 23:00:00 23.6 4 Sudeste 9 Sudeste 0 1008.8 2 79
2019-08-08 22:00:00 25 4 Sudeste 10 Sur 0 1007.7 0.7 72
2019-08-08 21:00:00 25.9 5 Este 11 Sudeste 0 1007.1 -0.3 64
2019-08-08 20:00:00 26.8 6 Sudeste 10 Este 0 1006.8 -0.7 59
2019-08-08 19:00:00 27.7 7 Este 14 Este 0 1007 -1 46
2019-08-08 18:00:00 27.8 11 Este 15 Este 0 1007.4 -0.7 54
2019-08-08 17:00:00 27 11 Este 18 Sudeste 0 1007.5 -0.7 56
2019-08-08 16:00:00 26.6 8 Este 12 Este 0 1008 -0.4 54
2019-08-08 15:00:00 26.6 6 Sudeste 12 Sudeste 0 1008.1 -0.4 58
2019-08-08 14:00:00 27.2 8 Sudeste 12 Sur 0 1008.2 0.1 61
2019-08-08 13:00:00 26.9 5 Sudeste 12 Nordeste 0 1008.4 0.7 64
2019-08-08 12:00:00 28.8 0 Calma 15 Este 0 1008.5 1.3 56
2019-08-08 11:00:00 27.8 3 Este 13 Este 0 1008.1 1.1 64
2019-08-08 10:00:00 26 6 Sudeste 22 Este 0 1007.7 1 62
2019-08-08 09:00:00 28.7 7 Oeste 27 Oeste 0 1007.2 0.7 39
2019-08-08 08:00:00 27.7 15 Oeste 27 Oeste 0 1007 0.5 39
2019-08-08 07:00:00 28 9 Oeste 29 Noroeste 0 1006.7 0 38
2019-08-08 06:00:00 28.6 13 Oeste 27 Oeste 0 1006.5 -0.2 36
2019-08-08 05:00:00 29.1 14 Oeste 30 Oeste 0 1006.5 -0.5 34
2019-08-08 04:00:00 29.8 13 Oeste 26 Oeste 0 1006.7 -0.1 32
2019-08-08 03:00:00 30.6 12 Oeste 25 Oeste 0 1006.7 -0.3 30
2019-08-08 02:00:00 31.2 8 Oeste 24 Noroeste 0 1007 0.1 28
2019-08-08 01:00:00 32 13 Noroeste 24 Oeste 0 1006.8 0.9 27
2019-08-08 00:00:00 32.1 11 Oeste 20 Oeste 0 1007 2.1 27
2019-08-07 23:00:00 31.3 7 Oeste 12 Sudoeste 0 1006.9 2.6 36
2019-08-07 22:00:00 27.4 2 Sur 14 Oeste 0 1005.9 1.7 51
2019-08-07 21:00:00 35 5 Norte 21 Noroeste 0 1004.9 0.5 19
2019-08-07 20:00:00 36.3 6 Norte 21 Noroeste 0 1004.3 0 18
2019-08-07 19:00:00 36.8 8 Norte 26 Noroeste 0 1004.2 -0.2 16
2019-08-07 18:00:00 37.6 12 Oeste 34 Oeste 0 1004.4 -0.3 15
2019-08-07 17:00:00 38 17 Oeste 33 Oeste 0 1004.3 -1.2 14
2019-08-07 16:00:00 39 13 Oeste 36 Oeste 0 1004.4 -1.9 14
2019-08-07 15:00:00 39 16 Oeste 35 Oeste 0 1004.7 -1.7 14
2019-08-07 14:00:00 37.5 13 Sudoeste 30 Sudoeste 0 1005.5 -0.7 14
2019-08-07 13:00:00 36.1 13 Oeste 28 Sudoeste 0 1006.3 0.2 18
2019-08-07 12:00:00 34.8 12 Oeste 26 Sudoeste 0 1006.4 0.3 20
2019-08-07 11:00:00 32.8 10 Oeste 29 Sudoeste 0 1006.2 0.1 21
2019-08-07 10:00:00 30.2 13 Oeste 27 Oeste 0 1006.1 0.2 21
2019-08-07 09:00:00 28.6 11 Oeste 27 Oeste 0 1006.1 0.2 22
2019-08-07 08:00:00 27.4 9 Oeste 20 Oeste 0 1006.1 0.5 23
2019-08-07 07:00:00 26.9 7 Noroeste 16 Noroeste 0 1005.9 0.1 26
2019-08-07 06:00:00 27.5 8 Noroeste 17 Oeste 0 1005.9 -0.3 28
2019-08-07 05:00:00 26.1 8 Noroeste 11 Noroeste 0 1005.6 -0.7 36
2019-08-07 04:00:00 24.9 8 Noroeste 13 Norte 0 1005.8 -0.7 48
2019-08-07 03:00:00 24.2 5 Este 24 Este 0 1006.2 -0.7 68
2019-08-07 02:00:00 26.1 3 Nordeste 14 Noroeste 0 1006.3 -0.6 45
2019-08-07 01:00:00 25.3 7 Noroeste 13 Noroeste 0 1006.5 -0.1 57
2019-08-07 00:00:00 24.1 0 Calma 5 Sur 0 1006.9 1.1 64
2019-08-06 23:00:00 23.9 0 Calma 12 Sudeste 0 1006.9 2.1 66
2019-08-06 22:00:00 24 8 Sudeste 23 Sudeste 0 1006.6 1.7 59
2019-08-06 21:00:00 26.4 14 Sudeste 26 Este 0 1005.8 0.3 42
2019-08-06 20:00:00 28 10 Este 18 Este 0 1004.8 -1.1 40
2019-08-06 19:00:00 28.6 9 Este 14 Este 0 1004.9 -1.9 35
2019-08-06 18:00:00 27.5 7 Sudeste 13 Sudeste 0 1005.5 -1.8 50
2019-08-06 17:00:00 27.6 7 Este 11 Este 0 1005.9 -2.4 46
2019-08-06 16:00:00 27.1 6 Sudeste 15 Sudeste 0 1006.8 -1.2 51
2019-08-06 15:00:00 27.2 7 Sudeste 14 Este 0 1007.3 -1 62
2019-08-06 14:00:00 26.5 8 Sudeste 16 Sudeste 0 1008.3 0.3 71
2019-08-06 13:00:00 27.5 9 Sur 14 Sur 0 1008 -0.4 55
2019-08-06 12:00:00 27.2 5 Sudeste 9 Sudeste 0 1008.3 0.3 57
2019-08-06 11:00:00 26.8 5 Sur 8 Sur 0 1008 -0.1 60
2019-08-06 10:00:00 25.1 4 Sudeste 15 Sudeste 0 1008.4 0.3 74
2019-08-06 09:00:00 25.3 7 Este 21 Nordeste 0 1008 -0.4 65
2019-08-06 08:00:00 24.8 7 Noroeste 13 Noroeste 0 1008.1 -0.8 46
2019-08-06 07:00:00 23.8 6 Noroeste 15 Norte 0 1008.1 -0.7 52
2019-08-06 06:00:00 21.9 5 Norte 12 Norte 0 1008.4 -0.5 72
2019-08-06 05:00:00 23 0 Calma 9 Sudeste 0 1008.9 -0.3 84
2019-08-06 04:00:00 23.5 5 Sur 9 Sudoeste 0 1008.8 -0.6 81
2019-08-06 03:00:00 23.6 4 Sudeste 10 Noroeste 0 1008.9 -0.5 80
2019-08-06 02:00:00 23.2 3 Noroeste 10 Este 0 1009.2 0.3 84
2019-08-06 01:00:00 22.8 5 Este 11 Sudeste 0 1009.4 1.8 84
2019-08-06 00:00:00 22.9 7 Sudeste 12 Sudeste 0 1009.4 2.1 82
2019-08-05 23:00:00 24.2 4 Sudeste 10 Este 0 1008.9 2 73
2019-08-05 22:00:00 24.7 0 Calma 8 Este 0 1007.6 0.3 68
2019-08-05 21:00:00 25.2 4 Sudeste 8 Sur 0 1007.3 -0.3 62
2019-08-05 20:00:00 24.8 6 Sudeste 11 Este 0 1006.9 -0.9 69
2019-08-05 19:00:00 25.8 7 Sudeste 17 Sudeste 0 1007.3 -0.9 65
2019-08-05 18:00:00 25.2 10 Sudeste 17 Este 0 1007.6 -1.1 70
2019-08-05 17:00:00 25.3 12 Este 18 Este 0 1007.8 -1.2 70
2019-08-05 16:00:00 24.6 14 Este 22 Sudeste 0 1008.2 -1 75
2019-08-05 15:00:00 24.5 13 Este 23 Este 0 1008.7 0.5 71
2019-08-05 14:00:00 24.4 17 Este 26 Sudeste 0 1009 0.9 68
2019-08-05 13:00:00 24.5 11 Sudeste 19 Este 0 1009.2 0.3 70
2019-08-05 12:00:00 25.9 6 Sudeste 18 Sur 0 1008.2 -0.8 71
2019-08-05 11:00:00 28.1 0 Calma 12 Este 0 1008.1 -1 63
2019-08-05 10:00:00 25.2 5 Este 14 Este 0 1008.9 -0.1 70
2019-08-05 09:00:00 24.4 5 Este 13 Sudeste 0 1009 0 65
2019-08-05 08:00:00 23.5 0 Calma 7 Norte 0 1009.1 -0.1 61
2019-08-05 07:00:00 23.1 4 Norte 8 Norte 0 1009 -0.5 63
2019-08-05 06:00:00 22.7 3 Noroeste 9 Noroeste 0 1009 -1.1 73
2019-08-05 05:00:00 23.1 4 Noroeste 9 Nordeste 0 1009.2 -1 75
2019-08-05 04:00:00 22.9 5 Nordeste 8 Nordeste 0 1009.5 0.2 78
2019-08-05 03:00:00 22.7 4 Este 11 Este 0 1010.1 0.6 79
2019-08-05 02:00:00 22.8 8 Este 16 Este 0 1010.2 0.3 82
2019-08-05 01:00:00 24.4 0 Calma 8 Noroeste 0 1009.3 0.1 72
2019-08-05 00:00:00 23.3 0 Calma 5 Sudeste 0 1009.5 1 78
2019-08-04 23:00:00 23.2 4 Sudeste 9 Sudeste 0 1009.9 2.1 78
2019-08-04 22:00:00 23 4 Sudeste 10 Sur 0 1009.2 1.2 78
2019-08-04 21:00:00 24 5 Sudeste 9 Sudeste 0 1008.5 0.1 72
2019-08-04 20:00:00 25.1 6 Sudeste 13 Este 0 1007.8 -0.9 66
2019-08-04 19:00:00 26.4 5 Sudeste 15 Sur 0 1008 -0.9 61
2019-08-04 18:00:00 25.7 9 Sudeste 15 Sudeste 0 1008.4 -0.8 63
2019-08-04 17:00:00 25.4 10 Sudeste 15 Sudeste 0 1008.7 -0.7 65
2019-08-04 16:00:00 25.1 10 Sudeste 17 Sudeste 0 1008.9 -1 59
2019-08-04 15:00:00 25.4 8 Sudeste 14 Sur 0 1009.2 -0.3 59
2019-08-04 14:00:00 24.5 8 Sudeste 14 Sudeste 0 1009.4 0.1 65
2019-08-04 13:00:00 25 10 Sudeste 18 Este 0 1009.9 1 63
2019-08-04 12:00:00 25.7 10 Este 20 Este 0 1009.5 0.9 64
2019-08-04 11:00:00 24.2 9 Sudeste 14 Sudeste 0 1009.3 0.4 67
2019-08-04 10:00:00 25 6 Sudeste 13 Sudeste 0 1008.9 0 67
2019-08-04 09:00:00 25.4 6 Oeste 16 Oeste 0 1008.6 -0.6 56
2019-08-04 08:00:00 24.1 7 Oeste 22 Sudoeste 0 1008.9 -0.8 64
2019-08-04 07:00:00 23.7 9 Oeste 21 Oeste 0 1008.9 -1.4 66
2019-08-04 06:00:00 23.9 8 Oeste 15 Oeste 0 1009.2 -1.3 67
2019-08-04 05:00:00 23.4 9 Noroeste 14 Noroeste 0 1009.7 -1.2 68
2019-08-04 04:00:00 22.8 4 Oeste 9 Oeste 0 1010.3 -0.6 86
2019-08-04 03:00:00 22.6 3 Sur 4 Sur 0 1010.5 0.5 87
2019-08-04 02:00:00 23.1 3 Sudeste 9 Este 0 1010.9 1.4 87
2019-08-04 01:00:00 23.1 6 Este 9 Sudoeste 0 1010.9 2.1 86
2019-08-04 00:00:00 23.6 7 Sudoeste 11 Sudoeste 0 1010 1.6 80
2019-08-03 23:00:00 23.2 2 Sur 5 Sur 0 1009.5 1.5 86
2019-08-03 22:00:00 23.4 3 Sudeste 10 Este 0 1008.8 0.6 86
2019-08-03 21:00:00 24.2 4 Sudeste 10 Sudeste 0 1008.4 -0.4 79
2019-08-03 20:00:00 24.7 5 Sur 11 Sur 0 1008 -1.5 75
2019-08-03 19:00:00 25.4 6 Sudeste 13 Este 0 1008.2 -1.2 73
2019-08-03 18:00:00 25.9 6 Sudeste 16 Sur 0 1008.8 -0.7 72
2019-08-03 17:00:00 26.1 9 Sur 15 Sudeste 0 1009.5 -0.7 72
2019-08-03 16:00:00 26.7 7 Sudeste 14 Sur 0 1009.4 -1 63
2019-08-03 15:00:00 27 6 Sudeste 12 Sur 0 1009.5 -1.2 62
2019-08-03 14:00:00 26 8 Sudeste 14 Sudeste 0 1010.2 -0.3 66
2019-08-03 13:00:00 26.9 5 Sur 10 Sudeste 0 1010.4 0.5 64
2019-08-03 12:00:00 26.4 6 Sur 13 Sur 0 1010.7 1 65
2019-08-03 11:00:00 25.2 8 Sur 13 Sur 0 1010.5 0.8 71
2019-08-03 10:00:00 25 4 Sudeste 11 Sudeste 0 1009.9 0.4 67
2019-08-03 09:00:00 24.4 3 Sudeste 10 Sudoeste 0 1009.7 0.3 67
2019-08-03 08:00:00 24 5 Sudoeste 13 Noroeste 0 1009.7 0.3 70
2019-08-03 07:00:00 23.1 5 Norte 12 Norte 0 1009.5 0 68
2019-08-03 06:00:00 22.7 0 Calma 6 Sudeste 0 1009.4 -0.5 80
2019-08-03 05:00:00 23.3 0 Calma 10 Oeste 0 1009.4 -1.1 80
2019-08-03 04:00:00 23.3 3 Oeste 8 Oeste 0 1009.5 -0.9 83
2019-08-03 03:00:00 22.8 2 Noroeste 9 Noroeste 0 1009.9 -0.5 87
2019-08-03 02:00:00 23.3 4 Este 11 Este 0 1010.5 0.7 87
2019-08-03 01:00:00 23.3 4 Este 19 Sudeste 0 1010.4 1.5 87
2019-08-03 00:00:00 23.2 8 Este 17 Este 0 1010.4 2.2 87
2019-08-02 23:00:00 23.4 10 Este 14 Este 0 1009.8 2 86
2019-08-02 22:00:00 23.4 6 Este 12 Este 0 1008.9 0.9 84
2019-08-02 21:00:00 23.9 4 Sudeste 9 Sudeste 0 1008.2 -0.5 80
2019-08-02 20:00:00 25.1 6 Sudeste 9 Sur 0 1007.8 -1.5 73
2019-08-02 19:00:00 25.9 4 Sur 13 Sudeste 0 1008 -1.4 72
2019-08-02 18:00:00 25.3 6 Sudeste 14 Sudeste 0 1008.7 -1.1 72
2019-08-02 17:00:00 25.1 8 Sudeste 17 Sudeste 0 1009.3 -0.6 74
2019-08-02 16:00:00 25.1 10 Sudeste 16 Sudeste 0 1009.4 -0.4 74
2019-08-02 15:00:00 24.4 13 Sudeste 22 Sudeste 0 1009.8 0.6 79
2019-08-02 14:00:00 26.2 6 Sudeste 19 Este 0 1009.9 1.2 67
2019-08-02 13:00:00 26.6 5 Este 16 Sudeste 0 1009.8 2.2 68
2019-08-02 12:00:00 24.9 8 Este 17 Nordeste 0 1009.2 2 71
2019-08-02 11:00:00 24.5 6 Este 20 Sudoeste 0 1008.7 0.5 75
2019-08-02 10:00:00 24.3 18 Sudoeste 27 Sudoeste 0 1007.6 -1 74
2019-08-02 09:00:00 25.1 12 Oeste 24 Noroeste 0 1007.2 -1.6 64
2019-08-02 08:00:00 23.3 10 Noroeste 20 Oeste 0 1008.2 -1.3 76
2019-08-02 07:00:00 23.2 9 Oeste 22 Noroeste 0 1008.6 -1.1 76
2019-08-02 06:00:00 23.5 8 Oeste 12 Oeste 0 1008.8 -0.7 77
2019-08-02 05:00:00 22.6 4 Noroeste 10 Noroeste 0 1009.5 -0.1 81
2019-08-02 04:00:00 22.7 0 Calma 4 Sudeste 0 1009.7 0.2 79
2019-08-02 03:00:00 23 0 Calma 4 Sudeste 0 1009.5 0.3 76
2019-08-02 02:00:00 23.2 0 Calma 7 Este 0 1009.6 1 75
2019-08-02 01:00:00 23.9 5 Este 11 Este 0 1009.5 1.5 72
2019-08-02 00:00:00 24 4 Este 12 Este 0 1009.2 1.8 71
2019-08-01 23:00:00 24.2 6 Sudeste 10 Este 0 1008.6 1.8 68
2019-08-01 22:00:00 24.7 4 Este 14 Este 0 1008 1.5 65
2019-08-01 21:00:00 25 9 Este 14 Este 0 1007.4 0.6 61
2019-08-01 20:00:00 25.2 6 Este 11 Sudeste 0 1006.8 -0.8 60
2019-08-01 19:00:00 26.1 6 Sudeste 12 Sur 0 1006.5 -1.3 58
2019-08-01 18:00:00 26.7 7 Sudeste 12 Sudeste 0 1006.8 -1.1 56
2019-08-01 17:00:00 25.9 8 Este 14 Sudeste 0 1007.6 -1 60
2019-08-01 16:00:00 25.7 6 Sudeste 13 Sudeste 0 1007.8 -0.8 65
2019-08-01 15:00:00 26.6 5 Sudeste 18 Este 0 1007.9 -0.3 59
2019-08-01 14:00:00 25.9 9 Sudeste 18 Sudeste 0 1008.6 0.8 59
2019-08-01 13:00:00 27.2 10 Sur 19 Sudeste 0 1008.6 0.6 55
2019-08-01 12:00:00 29.6 6 Sur 13 Sur 0 1008.2 0.3 50
2019-08-01 11:00:00 29.8 3 Sur 17 Oeste 0 1007.8 -0.8 48
2019-08-01 10:00:00 28.2 6 Sudoeste 17 Norte 0 1008 -0.2 52
2019-08-01 09:00:00 25.4 9 Noroeste 17 Noroeste 0 1007.9 -0.5 63
2019-08-01 08:00:00 24.1 8 Noroeste 16 Noroeste 0 1008.6 -0.1 68
2019-08-01 07:00:00 24.4 6 Noroeste 12 Norte 0 1008.2 -0.4 69
2019-08-01 06:00:00 24.3 6 Oeste 12 Sudoeste 0 1008.4 -0.4 70
2019-08-01 05:00:00 24.4 7 Sudoeste 15 Sudoeste 0 1008.7 -0.3 69
2019-08-01 04:00:00 24.7 4 Oeste 10 Oeste 0 1008.6 -0.4 67
2019-08-01 03:00:00 24.6 4 Noroeste 10 Noroeste 0 1008.8 0.3 67
2019-08-01 02:00:00 24.7 4 Oeste 16 Oeste 0 1009 0.4 68
2019-08-01 01:00:00 25 5 Sudoeste 15 Sudoeste 0 1009 0.6 68
2019-08-01 00:00:00 25.1 6 Sudoeste 14 Sudoeste 0 1008.5 0.2 68
2019-07-31 23:00:00 25 2 Sudoeste 10 Este 0 1008.6 1.1 67
2019-07-31 22:00:00 25.3 4 Nordeste 12 Este 0 1008.4 1.4 66
2019-07-31 21:00:00 25.8 0 Calma 13 Sur 0 1008.3 1.2 63
2019-07-31 20:00:00 26.5 9 Sudoeste 14 Sudoeste 0 1007.5 0.2 59
2019-07-31 19:00:00 27.7 6 Sur 15 Sudoeste 0 1007 -0.6 53
2019-07-31 18:00:00 28.2 6 Sur 14 Sudoeste 0 1007.1 -1 49
2019-07-31 17:00:00 28.9 6 Sur 12 Sur 0 1007.3 -1.2 47
2019-07-31 16:00:00 29.3 4 Sudeste 12 Sudeste 0 1007.6 -1.3 46
2019-07-31 15:00:00 28.7 6 Sur 13 Sur 0 1008.1 -1 48
2019-07-31 14:00:00 28.2 9 Sur 14 Sudoeste 0 1008.5 -0.3 51
2019-07-31 13:00:00 27.2 10 Sur 14 Sur 0 1008.9 0.2 55
2019-07-31 12:00:00 27.6 7 Sur 16 Sudeste 0 1009.1 0 54
2019-07-31 11:00:00 27.5 6 Sur 17 Este 0 1008.8 -0.5 56
2019-07-31 10:00:00 26.7 4 Este 11 Este 0 1008.7 -0.2 58
2019-07-31 09:00:00 25.1 3 Sudeste 6 Sudeste 0 1009.1 0.9 61
2019-07-31 08:00:00 23 0 Calma 6 Sudeste 0 1009.3 1.9 74
2019-07-31 07:00:00 23.3 0 Calma 7 Sudoeste 0 1008.9 1.8 74
2019-07-31 06:00:00 23.6 4 Sudoeste 17 Oeste 0 1008.2 -0.2 71
2019-07-31 05:00:00 23.9 9 Oeste 21 Oeste 0 1007.4 -1.8 68
2019-07-31 04:00:00 24.3 5 Noroeste 17 Norte 0 1007.1 -2.1 62
2019-07-31 03:00:00 23.3 0 Calma 13 Sudeste 0 1008.4 -1.4 72
2019-07-31 02:00:00 23.7 6 Sudeste 23 Este 0 1009.2 0.9 67
2019-07-31 01:00:00 23.6 8 Este 27 Sudeste 0 1009.2 2.7 77
2019-07-31 00:00:00 23 14 Sudeste 25 Sudeste 0 1009.8 3.9 77
2019-07-30 23:00:00 23.9 4 Sudeste 6 Sudeste 0 1008.3 2.4 61
2019-07-30 22:00:00 25 0 Calma 8 Este 0 1006.5 0.5 55
2019-07-30 21:00:00 26.5 0 Calma 7 Este 0 1005.9 -0.3 53
2019-07-30 20:00:00 25 3 Sudeste 10 Sudeste 0 1005.9 -0.7 62
2019-07-30 19:00:00 25.6 5 Sudeste 11 Sur 0 1006 -0.7 62
2019-07-30 18:00:00 27.1 4 Sur 10 Este 0 1006.2 -1 60
2019-07-30 17:00:00 25 7 Sudeste 11 Este 0 1006.6 -1.4 63
2019-07-30 16:00:00 25.5 8 Este 13 Sudeste 0 1006.7 -1.7 61
2019-07-30 15:00:00 26.5 5 Este 19 Nordeste 0 1007.2 -1 59
2019-07-30 14:00:00 26.5 7 Este 13 Nordeste 0 1008 0.4 63
2019-07-30 13:00:00 23.6 7 Sudeste 13 Este 0 1008.4 1.3 75
2019-07-30 12:00:00 24.1 6 Sur 11 Sudeste 0 1008.2 1.2 67
2019-07-30 11:00:00 23.5 7 Sudeste 10 Sur 0 1007.6 0.5 68
2019-07-30 10:00:00 22.8 6 Sur 8 Sudoeste 0 1007.1 -0.2 72
2019-07-30 09:00:00 22.2 0 Calma 11 Sur 0 1007 -0.2 75
2019-07-30 08:00:00 21.5 0 Calma 4 Sudoeste 0 1007.1 0.1 80
2019-07-30 07:00:00 20.9 0 Calma 13 Este 0 1007.3 0.9 84
2019-07-30 06:00:00 21 9 Este 18 Este 0 1007.2 1.1 84
2019-07-30 05:00:00 21.3 8 Este 18 Este 0 1007 0.4 82
2019-07-30 04:00:00 23.1 11 Este 21 Oeste 0 1006.4 0 65
2019-07-30 03:00:00 28.6 10 Oeste 26 Oeste 0 1006.1 -0.2 35
2019-07-30 02:00:00 22.6 5 Oeste 16 Noroeste 0 1006.6 0.6 67
2019-07-30 01:00:00 29 9 Oeste 16 Oeste 0 1006.4 1 34
2019-07-30 00:00:00 24.2 0 Calma 4 Sudoeste 0 1006.3 1.2 69
2019-07-29 23:00:00 23.2 0 Calma 5 Sudoeste 0 1006 1.1 75
2019-07-29 22:00:00 22.5 3 Sudoeste 14 Este 0 1005.4 0.4 76
2019-07-29 21:00:00 22.7 8 Este 17 Este 0 1005.1 -0.3 72
2019-07-29 20:00:00 23 12 Este 25 Este 0 1004.9 -0.8 69
2019-07-29 19:00:00 23.5 16 Este 27 Este 0 1005 -1.2 67
2019-07-29 18:00:00 23.5 12 Este 23 Este 0 1005.4 -1.2 63
2019-07-29 17:00:00 23.5 13 Este 20 Este 0 1005.7 -1 63
2019-07-29 16:00:00 25.2 12 Este 21 Este 0 1006.2 -0.9 56
2019-07-29 15:00:00 24.2 13 Este 18 Sudeste 0 1006.6 -0.2 55
2019-07-29 14:00:00 26.2 10 Este 19 Sudeste 0 1006.7 0.3 49
2019-07-29 13:00:00 23.5 12 Este 19 Este 0 1007.1 1 55
2019-07-29 12:00:00 23.5 7 Este 14 Sudeste 0 1006.8 0.4 60
2019-07-29 11:00:00 23.9 7 Sudeste 12 Sudeste 0 1006.4 -0.3 60
2019-07-29 10:00:00 26.3 2 Sudeste 7 Sur 0 1006.1 -0.4 53
2019-07-29 09:00:00 22.9 0 Calma 6 Sur 0 1006.4 0.3 76
2019-07-29 08:00:00 20.3 3 Sur 13 Este 0 1006.7 0.8 86
2019-07-29 07:00:00 20.7 5 Sudeste 9 Sudeste 0 1006.5 0.7 84
2019-07-29 06:00:00 20.7 3 Este 7 Sudeste 0 1006.1 0 84
2019-07-29 05:00:00 21.1 3 Sudeste 6 Sudeste 0 1005.9 -0.2 80
2019-07-29 04:00:00 21.3 0 Calma 3 Este 0 1005.8 -0.4 80
2019-07-29 03:00:00 21 0 Calma 5 Este 0 1006.1 0.1 80
2019-07-29 02:00:00 21.3 5 Este 9 Este 0 1006.1 0.4 78
2019-07-29 01:00:00 21.1 2 Sudeste 10 Sudeste 0 1006.2 1.2 77
2019-07-29 00:00:00 22 6 Este 10 Este 0 1006 1.7 74
2019-07-28 23:00:00 22.7 4 Sudeste 9 Sudeste 0 1005.7 1.7 67
2019-07-28 22:00:00 22.8 0 Calma 10 Sur 0 1005 1.4 67
2019-07-28 21:00:00 24.3 4 Este 13 Este 0 1004.3 0.3 59
2019-07-28 20:00:00 24.6 7 Este 15 Este 0 1004 -0.3 59
2019-07-28 19:00:00 26.5 6 Este 14 Este 0 1003.6 -1 54
2019-07-28 18:00:00 26.3 4 Sudeste 13 Sur 0 1004 -0.9 54
2019-07-28 17:00:00 28.2 5 Este 16 Este 0 1004.3 -0.8 51
2019-07-28 16:00:00 26.8 8 Este 17 Nordeste 0 1004.6 -0.5 55
2019-07-28 15:00:00 26.3 9 Sur 21 Sur 0 1004.9 0 56
2019-07-28 14:00:00 25 14 Sur 25 Sur 0 1005.1 0.6 62
2019-07-28 13:00:00 25.9 9 Sudoeste 19 Sur 0 1005.1 0.9 56
2019-07-28 12:00:00 25.4 11 Sudoeste 25 Sur 0 1004.9 0.8 55
2019-07-28 11:00:00 28.5 13 Sudoeste 27 Oeste 0 1004.5 0.2 48
2019-07-28 10:00:00 26.6 13 Oeste 28 Oeste 0 1004.2 -0.3 52
2019-07-28 09:00:00 24.7 12 Oeste 24 Oeste 0 1004.1 -0.3 57
2019-07-28 08:00:00 23.6 10 Oeste -- -- -- 1004.3 -0.3 60
2019-07-28 07:00:00 23.6 11 Oeste 27 Oeste 0 1004.5 -0.4 60
2019-07-28 06:00:00 23.9 11 Oeste 27 Oeste 0 1004.4 -0.8 60
2019-07-28 05:00:00 24.2 13 Oeste 31 Oeste 0 1004.6 -1.1 60
2019-07-28 04:00:00 24.5 13 Oeste 28 Oeste 0 1004.9 -1.1 60
2019-07-28 03:00:00 24.6 14 Oeste 29 Oeste 0 1005.2 -0.9 59
2019-07-28 02:00:00 24.7 15 Oeste 29 Oeste 0 1005.7 -0.2 58
2019-07-28 01:00:00 25.4 12 Noroeste 31 Oeste 0 1006 0.8 55
2019-07-28 00:00:00 25.8 9 Noroeste 31 Noroeste 0 1006.1 1.7 52
2019-07-27 23:00:00 26.2 13 Noroeste 28 Noroeste 0 1005.9 1.9 51
2019-07-26 12:00:00 32 0 Calma 18 Oeste 0 1006.9 -0.6 33
2019-07-26 11:00:00 29.4 5 Este 15 Sur 0 1007.3 -0.5 47
2019-07-26 10:00:00 27.6 6 Este 14 Sur 0 1007.4 -0.7 50
2019-07-26 09:00:00 27.1 8 Sudoeste 16 Sudoeste 0 1007.5 -0.5 41
2019-07-26 08:00:00 25 6 Sudoeste 13 Sudoeste 0 1007.8 -0.3 50
2019-07-26 07:00:00 24.3 3 Oeste 12 Oeste 0 1008.1 -0.1 57
2019-07-26 06:00:00 24.2 6 Oeste 12 Noroeste 0 1008 -0.9 56
2019-07-26 05:00:00 23.9 0 Calma 11 Noroeste 0 1008.1 -1 56
2019-07-26 04:00:00 22.6 3 Noroeste 8 Noroeste 0 1008.2 -1.2 73
2019-07-26 03:00:00 23.5 0 Calma 9 Este 0 1008.9 -0.6 85
2019-07-26 02:00:00 23.9 5 Este 8 Sudeste 0 1009.1 -0.3 83
2019-07-26 01:00:00 24.1 4 Sudeste 12 Sudeste 0 1009.4 0.9 80
2019-07-26 00:00:00 24.8 5 Nordeste 9 Nordeste 0 1009.5 1.4 70
2019-07-25 23:00:00 24.4 5 Este 9 Sur 0 1009.4 1.9 77
2019-07-25 22:00:00 24.5 5 Sur 13 Sur 0 1008.5 0.8 78
2019-07-25 21:00:00 25.7 5 Sur 11 Sur 0 1008.1 -0.2 73
2019-07-25 20:00:00 26.9 6 Sudeste 9 Sudeste 0 1007.5 -1 66
2019-07-25 19:00:00 27.4 5 Sudeste 10 Este 0 1007.7 -1.1 64
2019-07-25 18:00:00 27.5 6 Sudeste 13 Este 0 1008.3 -1.1 63
2019-07-25 17:00:00 27.2 7 Sudeste 13 Este 0 1008.5 -1.3 65
2019-07-25 16:00:00 28.6 5 Sur 12 Sudeste 0 1008.8 -0.7 62
2019-07-25 15:00:00 27.1 8 Sudeste 12 Sur 0 1009.4 0.2 63
2019-07-25 14:00:00 27.7 5 Sudeste 12 Sur 0 1009.8 0.9 62
2019-07-25 13:00:00 27.7 7 Sudeste 13 Sudeste 0 1009.5 0.8 61
2019-07-25 12:00:00 27.4 8 Sudeste 13 Sudeste 0 1009.2 0.6 59
2019-07-25 11:00:00 28.1 6 Sudeste 9 Sudeste 0 1008.9 0.1 49
2019-07-25 10:00:00 27.9 5 Sudeste 7 Sudeste 0 1008.7 -0.2 44
2019-07-25 09:00:00 28 0 Calma 7 Norte 0 1008.6 0.1 43
2019-07-25 08:00:00 25.6 3 Noroeste 7 Noroeste 0 1008.8 0 47
2019-07-25 07:00:00 24.8 2 Noroeste 6 Noroeste 0 1008.9 -0.2 51
2019-07-25 06:00:00 24.9 0 Calma 12 Noroeste 0 1008.5 -1 51
2019-07-25 05:00:00 24.8 6 Noroeste 16 Norte 0 1008.8 -1.2 52
2019-07-25 04:00:00 24.9 6 Norte 14 Noroeste 0 1009.1 -0.6 52
2019-07-25 03:00:00 25.1 8 Norte 17 Norte 0 1009.5 -0.2 52
2019-07-25 02:00:00 25.7 4 Norte 10 Noroeste 0 1010 0.3 51
2019-07-25 01:00:00 26.1 3 Norte 8 Noroeste 0 1009.7 0.8 51
2019-07-25 00:00:00 26.2 4 Noroeste 10 Norte 0 1009.7 1.3 51
2019-07-24 23:00:00 25.9 4 Sudeste 7 Este 0 1009.7 1.5 53
2019-07-24 22:00:00 26.9 4 Este 9 Este 0 1008.9 0.8 50
2019-07-24 21:00:00 27 4 Sudeste 11 Sur 0 1008.4 -0.3 49
2019-07-24 20:00:00 28.1 10 Sur 18 Sudoeste 0 1008.2 -0.9 47
2019-07-24 19:00:00 28.2 11 Sudoeste 22 Sur 0 1008.1 -1.1 47
2019-07-24 18:00:00 27.6 16 Sur 22 Sudoeste 0 1008.7 -0.9 50
2019-07-24 17:00:00 28.2 13 Sur 21 Sudoeste 0 1009.1 -1 49
2019-07-24 16:00:00 28.5 11 Sur 19 Sur 0 1009.2 -1 52
2019-07-24 15:00:00 28.4 8 Sur 15 Sur 0 1009.6 -0.4 55
2019-07-24 14:00:00 28.2 5 Sudeste 15 Sudeste 0 1010.1 0.4 56
2019-07-24 13:00:00 27.7 6 Sudeste 12 Sudeste 0 1010.2 0.9 56
2019-07-24 12:00:00 27.2 7 Sudeste 13 Sudeste 0 1010 0.7 55
2019-07-24 11:00:00 28.1 6 Este 13 Este 0 1009.7 0.1 55
2019-07-24 10:00:00 27.8 4 Este 9 Nordeste 0 1009.3 0 54
2019-07-24 09:00:00 26.7 0 Calma 3 Nordeste 0 1009.3 0.1 53
2019-07-24 08:00:00 24.5 0 Calma 9 Noroeste 0 1009.6 0.2 54
2019-07-24 07:00:00 23.6 3 Noroeste 7 Noroeste 0 1009.3 -0.6 56
2019-07-24 06:00:00 23.5 0 Calma 3 Norte 0 1009.2 -0.9 60
2019-07-24 05:00:00 24.1 0 Calma 12 Oeste 0 1009.4 -1.2 62
2019-07-24 04:00:00 24.4 2 Oeste 9 Oeste 0 1009.9 -1 67
2019-07-24 03:00:00 24.4 5 Noroeste 12 Norte 0 1010.1 -1.1 63
2019-07-24 02:00:00 24.7 4 Norte 13 Noroeste 0 1010.6 -0.3 66
2019-07-24 01:00:00 24.2 3 Noroeste 9 Sudoeste 0 1010.9 0.4 73
2019-07-24 00:00:00 24.8 0 Calma 7 Este 0 1011.2 1.6 74
2019-07-23 23:00:00 24.7 3 Sudeste 8 Este 0 1010.9 2 72
2019-07-23 22:00:00 25 2 Sudeste 13 Sudeste 0 1010.5 1.3 67
2019-07-23 21:00:00 25.9 5 Sur 26 Sudoeste 0 1009.6 -0.1 62
2019-07-23 20:00:00 26.1 12 Sur 18 Sudoeste 0 1008.9 -1.3 58
2019-07-23 19:00:00 26.7 13 Sudoeste 20 Sudoeste 0 1009.2 -1.5 56
2019-07-23 18:00:00 27.6 7 Sur 21 Sur 0 1009.7 -1.2 54
2019-07-23 17:00:00 27.1 12 Sur 22 Sur 0 1010.2 -1 57
2019-07-23 16:00:00 27.2 10 Sur 20 Sur 0 1010.7 -0.2 53
2019-07-23 15:00:00 26.1 10 Sudeste 30 Sudoeste 0 1010.9 0.5 57
2019-07-23 14:00:00 27 16 Sur 30 Sudoeste 0 1011.2 0.9 53
2019-07-23 13:00:00 26.6 20 Sudoeste 32 Sudoeste 0 1010.9 0.6 53
2019-07-23 12:00:00 26.7 18 Sudoeste 27 Sudoeste 0 1010.4 -0.3 54
2019-07-23 11:00:00 27.8 12 Sudoeste 20 Sudoeste 0 1010.3 -1.1 53
2019-07-23 10:00:00 28.8 9 Oeste 23 Sudoeste 0 1010.3 -0.9 48
2019-07-23 09:00:00 26.4 5 Oeste 15 Noroeste 0 1010.7 -0.4 61
2019-07-23 08:00:00 24.7 6 Oeste 12 Noroeste 0 1011.4 0.5 72
2019-07-23 07:00:00 23.4 3 Norte 8 Norte 0 1011.2 0.3 79
2019-07-23 06:00:00 23.4 5 Este 11 Este 0 1011.1 0.4 83
2019-07-23 05:00:00 23.8 4 Nordeste 8 Este 0 1010.9 -0.2 80
2019-07-23 04:00:00 24.3 3 Este 15 Sudoeste 0 1010.9 -1.5 77
2019-07-23 03:00:00 25.3 9 Oeste 19 Noroeste 0 1010.7 -2.4 73
2019-07-23 02:00:00 25.5 9 Oeste 19 Norte 0 1011.1 -2.6 73
2019-07-23 01:00:00 25 0 Calma 6 Sur 0 1012.4 -0.4 76
2019-07-23 00:00:00 25.3 0 Calma 5 Nordeste 0 1013.1 1 75
2019-07-22 23:00:00 25.1 3 Este 7 Sudeste 0 1013.7 2.7 79
2019-07-22 22:00:00 25 4 Sudeste 14 Sur 0 1012.8 1.7 78
2019-07-22 21:00:00 25.3 7 Sur 16 Sudoeste 0 1012.1 0.3 74
2019-07-22 20:00:00 26.3 10 Sudoeste 14 Sudoeste 0 1011 -1.5 65
2019-07-22 19:00:00 26.8 9 Sur 18 Sur 0 1011.1 -1.9 62
2019-07-22 18:00:00 27.7 8 Sur 15 Sur 0 1011.8 -1.2 58
2019-07-22 17:00:00 27.6 8 Sur 17 Sudoeste 0 1012.5 -0.9 58
2019-07-22 16:00:00 26.9 14 Sudoeste 24 Sur 0 1013 -1.1 62
2019-07-22 15:00:00 27.5 7 Sur 15 Sur 0 1013 -0.9 63
2019-07-22 14:00:00 27.5 7 Sur 16 Sur 0 1013.4 -0.3 62
2019-07-22 13:00:00 26.2 12 Sur 18 Sur 0 1014.1 0.6 67
2019-07-22 12:00:00 26.9 10 Sur 15 Sudoeste 0 1013.9 0.4 65
2019-07-22 11:00:00 27 6 Sur 10 Sudeste 0 1013.7 -0.2 64
2019-07-22 10:00:00 27.3 4 Sudeste 8 Sudeste 0 1013.5 0 63
2019-07-22 09:00:00 25.2 0 Calma 7 Sur 0 1013.5 0.3 78
2019-07-22 08:00:00 24.1 4 Este 7 Nordeste 0 1013.9 0.8 84
2019-07-22 07:00:00 23.3 2 Este 13 Sur 0 1013.5 -0.3 84
2019-07-22 06:00:00 24.3 0 Calma 12 Norte 0 1013.2 -0.7 80
2019-07-22 05:00:00 24 6 Nordeste 13 Nordeste 0 1013.1 0.1 84
2019-07-22 04:00:00 23.6 4 Este 21 Sur 0 1013.8 -0.2 84
2019-07-22 03:00:00 24.8 14 Sudoeste 21 Sudoeste 0 1013.9 -0.9 77
2019-07-22 02:00:00 25.9 3 Oeste 13 Noroeste 0 1013 -1.6 70
2019-07-22 01:00:00 25.6 6 Noroeste 14 Noroeste 0 1014 0.2 74
2019-07-22 00:00:00 25.1 3 Sudoeste 8 Sudoeste 0 1014.8 2.1 76
2019-07-21 23:00:00 25.3 0 Calma 8 Sudeste 0 1014.6 3.1 75
2019-07-21 22:00:00 25.1 4 Este 12 Este 0 1013.8 2.5 74
2019-07-21 21:00:00 25.9 8 Este 15 Este 0 1012.7 0.8 69
2019-07-21 20:00:00 26.8 4 Este 13 Nordeste 0 1011.5 -0.5 67
2019-07-21 19:00:00 27.2 5 Sudeste 13 Sudeste 0 1011.3 -1 64
2019-07-21 18:00:00 26.4 7 Sudeste 13 Sudeste 0 1011.9 -0.8 66
2019-07-21 17:00:00 26.8 7 Sudeste 14 Sudeste 0 1012 -0.8 64
2019-07-21 16:00:00 26.9 8 Sudeste 14 Sudeste 0 1012.3 -0.8 63
2019-07-21 15:00:00 26.7 8 Sudeste 14 Sudeste 0 1012.7 -0.2 63
2019-07-21 14:00:00 26.9 8 Sudeste 14 Sudeste 0 1012.8 0.6 62
2019-07-21 13:00:00 28.2 5 Sudeste 13 Este 0 1013.1 0.9 55
2019-07-21 12:00:00 29 5 Este 13 Sudeste 0 1012.9 1 54
2019-07-21 11:00:00 28.6 4 Este 15 Este 0 1012.2 0.6 56
2019-07-21 10:00:00 26.5 11 Este 18 Este 0 1012.2 1.5 61
2019-07-21 09:00:00 24.8 10 Este 24 Nordeste 0 1011.9 1.5 65
2019-07-21 08:00:00 23.1 11 Este 18 Este 0 1011.6 1.2 71
2019-07-21 07:00:00 24.2 2 Sudeste 12 Oeste 0 1010.7 -0.6 60
2019-07-21 06:00:00 25.5 8 Sudoeste 14 Sudoeste 0 1010.4 -1.4 54
2019-07-21 05:00:00 25.5 5 Noroeste 10 Oeste 0 1010.4 -1.7 52
2019-07-21 04:00:00 25.8 5 Oeste 9 Oeste 0 1011.3 -0.4 53
2019-07-21 03:00:00 25.8 6 Noroeste 12 Noroeste 0 1011.8 -0.1 52
2019-07-21 02:00:00 26 3 Norte 14 Noroeste 0 1012.1 0.5 54
2019-07-21 01:00:00 25.8 6 Norte 18 Norte 0 1011.7 0.9 56
2019-07-21 00:00:00 25.7 5 Nordeste 9 Este 0 1011.9 2.3 61
2019-07-20 23:00:00 25.6 6 Este 18 Este 0 1011.6 3.3 63
2019-07-20 22:00:00 25.3 9 Este 17 Nordeste 0 1010.8 2.7 64
2019-07-20 21:00:00 25.5 8 Este 13 Nordeste 0 1009.6 1.3 59
2019-07-20 20:00:00 27.1 6 Este 13 Este 0 1008.3 -0.1 54
2019-07-20 19:00:00 27 8 Este 14 Este 0 1008.1 -0.7 53
2019-07-20 18:00:00 27.4 9 Este 20 Este 0 1008.3 -0.5 52
2019-07-20 17:00:00 26.9 11 Este 20 Nordeste 0 1008.4 -0.2 53
2019-07-20 16:00:00 27.4 12 Este 21 Sudeste 0 1008.8 0.3 53
2019-07-20 15:00:00 27.3 13 Este 24 Este 0 1008.8 0.6 53
2019-07-20 14:00:00 27.2 9 Este 25 Sudeste 0 1008.6 0.9 53
2019-07-20 13:00:00 26.1 11 Este 19 Este 0 1008.5 0.9 56
2019-07-20 12:00:00 27.4 4 Este 20 Este 0 1008.2 0.5 54
2019-07-20 11:00:00 28.4 4 Este 13 Este 0 1007.7 -0.1 47
2019-07-20 10:00:00 27.1 5 Este 10 Este 0 1007.6 0.2 49
2019-07-20 09:00:00 26 0 Calma 7 Este 0 1007.7 0.6 52
2019-07-20 08:00:00 23.9 3 Sudeste 9 Oeste 0 1007.8 0.5 56
2019-07-20 07:00:00 24.8 3 Oeste 13 Oeste 0 1007.4 -0.6 52
2019-07-20 06:00:00 24.7 9 Sudoeste 15 Oeste 0 1007.1 -1.5 52
2019-07-20 05:00:00 24.8 3 Noroeste 11 Noroeste 0 1007.3 -1.5 52
2019-07-20 04:00:00 24.8 6 Norte 12 Norte 0 1008 -0.9 50
2019-07-20 03:00:00 24.8 5 Noroeste 9 Norte 0 1008.6 -0.3 52
2019-07-20 02:00:00 24.7 3 Norte 9 Norte 0 1008.8 0 59
2019-07-20 01:00:00 25.2 4 Oeste 6 Sudoeste 0 1008.9 0.7 64
2019-07-20 00:00:00 24.6 0 Calma 5 Sudoeste 0 1008.9 1.3 68
2019-07-19 23:00:00 24.3 2 Este 9 Sudeste 0 1008.8 2.1 69
2019-07-19 22:00:00 24.2 3 Sudeste 24 Sudoeste 0 1008.2 1.5 64
2019-07-19 21:00:00 25.3 2 Sudeste 13 Sur 0 1007.6 0.5 56
2019-07-19 20:00:00 27.2 8 Sur 13 Sudoeste 0 1006.7 -1 44
2019-07-19 19:00:00 27.2 10 Sudoeste 15 Sudoeste 0 1006.7 -1.2 45
2019-07-19 18:00:00 27.7 6 Sur 17 Sur 0 1007.1 -1.9 46
2019-07-19 17:00:00 27.1 13 Sudoeste 23 Sudoeste 0 1007.7 -1.7 49
2019-07-19 16:00:00 25.3 16 Sur 21 Sur 0 1007.9 -1.7 57
2019-07-19 15:00:00 26 8 Sur 15 Sur 0 1009 -0.4 59
2019-07-19 14:00:00 26.4 8 Sur 15 Sudeste 0 1009.4 0.5 60
2019-07-19 13:00:00 25.9 10 Sur 14 Sur 0 1009.6 0.5 59
2019-07-19 12:00:00 26.7 5 Sudeste 13 Sur 0 1009.4 0.4 56
2019-07-19 11:00:00 28.5 3 Sur 8 Sur 0 1008.9 -0.9 47
2019-07-19 10:00:00 26.7 3 Sudoeste 10 Noroeste 0 1009.1 -1.1 49
2019-07-19 09:00:00 25.2 0 Calma 11 Noroeste 0 1009 -1.1 48
2019-07-19 08:00:00 22.6 5 Noroeste 11 Noroeste 0 1009.8 -0.3 52
2019-07-19 07:00:00 22 7 Norte 14 Noroeste 0 1010.2 -0.1 55
2019-07-19 06:00:00 22.1 5 Noroeste 11 Noroeste 0 1010.1 -0.2 57
2019-07-19 05:00:00 21.9 0 Calma 5 Este 0 1010.1 -0.2 66
2019-07-19 04:00:00 22.2 0 Calma 4 Sudeste 0 1010.3 0.1 64
2019-07-19 03:00:00 22.4 4 Sudoeste 8 Sudoeste 0 1010.3 0.4 62
2019-07-19 02:00:00 22.8 0 Calma 7 Este 0 1010.3 0.3 64
2019-07-19 01:00:00 23.1 3 Sur 6 Sur 0 1010.2 0.7 63
2019-07-19 00:00:00 22.8 0 Calma 5 Sur 0 1009.9 1.1 64